createdAt,value
2018-12-21T00:02:24.075Z,2.60
2018-12-21T00:04:51.560Z,2.60
2018-12-21T00:07:19.058Z,2.70
2018-12-21T00:09:46.614Z,2.70
2018-12-21T00:12:14.098Z,2.70
2018-12-21T00:14:41.628Z,2.80
2018-12-21T00:17:09.138Z,2.80
2018-12-21T00:19:36.700Z,2.80
2018-12-21T00:22:04.522Z,2.80
2018-12-21T00:24:32.069Z,2.90
2018-12-21T00:26:59.562Z,2.90
2018-12-21T00:29:27.175Z,3.00
2018-12-21T00:32:00.263Z,3.00
2018-12-21T00:34:33.439Z,3.00
2018-12-21T00:37:06.644Z,3.00
2018-12-21T00:39:39.743Z,3.10
2018-12-21T00:42:09.378Z,3.10
2018-12-21T00:44:38.578Z,3.00
2018-12-21T00:47:07.441Z,3.10
2018-12-21T00:49:34.962Z,3.10
2018-12-21T00:52:02.457Z,3.10
2018-12-21T00:54:29.994Z,3.10
2018-12-21T00:56:57.480Z,3.00
2018-12-21T00:59:24.985Z,3.00
2018-12-21T01:01:52.620Z,3.00
2018-12-21T01:04:20.160Z,3.00
2018-12-21T01:06:47.682Z,2.90
2018-12-21T01:09:15.176Z,3.00
2018-12-21T01:11:42.663Z,3.00
2018-12-21T01:14:10.211Z,3.10
2018-12-21T01:16:37.943Z,3.10
2018-12-21T01:19:05.520Z,3.10
2018-12-21T01:21:38.757Z,3.20
2018-12-21T01:24:03.724Z,3.20
2018-12-21T01:26:31.275Z,3.20
2018-12-21T01:28:58.761Z,3.20
2018-12-21T01:31:26.268Z,3.20
2018-12-21T01:33:53.744Z,3.30
2018-12-21T01:36:21.364Z,3.20
2018-12-21T01:38:48.854Z,3.20
2018-12-21T01:41:16.455Z,3.30
2018-12-21T01:43:44.025Z,3.30
2018-12-21T01:46:11.562Z,3.30
2018-12-21T01:48:39.056Z,3.30
2018-12-21T01:51:06.596Z,3.30
2018-12-21T01:53:34.108Z,3.30
2018-12-21T01:56:01.690Z,3.20
2018-12-21T01:58:29.206Z,3.20
2018-12-21T02:00:56.707Z,3.30
2018-12-21T02:03:24.217Z,3.30
2018-12-21T02:05:51.770Z,3.30
2018-12-21T02:08:19.257Z,3.30
2018-12-21T02:10:46.794Z,3.30
2018-12-21T02:13:14.306Z,3.30
2018-12-21T02:15:41.805Z,3.30
2018-12-21T02:18:09.309Z,3.30
2018-12-21T02:20:36.824Z,3.40
2018-12-21T02:23:04.281Z,3.40
2018-12-21T02:25:31.738Z,3.40
2018-12-21T02:27:59.235Z,3.40
2018-12-21T02:30:26.746Z,3.40
2018-12-21T02:32:54.274Z,3.40
2018-12-21T02:35:21.846Z,3.40
2018-12-21T02:37:49.335Z,3.40
2018-12-21T02:40:16.846Z,3.40
2018-12-21T02:42:44.350Z,3.40
2018-12-21T02:45:11.890Z,3.40
2018-12-21T02:47:39.375Z,3.40
2018-12-21T02:50:06.916Z,3.40
2018-12-21T02:52:34.416Z,3.40
2018-12-21T02:55:01.906Z,3.50
2018-12-21T02:57:29.396Z,3.40
2018-12-21T02:59:56.878Z,3.40
2018-12-21T03:02:24.403Z,3.40
2018-12-21T03:04:51.871Z,3.50
2018-12-21T03:07:19.506Z,3.50
2018-12-21T03:09:46.995Z,3.50
2018-12-21T03:12:14.477Z,3.50
2018-12-21T03:14:42.016Z,3.50
2018-12-21T03:17:09.529Z,3.50
2018-12-21T03:19:37.023Z,3.50
2018-12-21T03:22:04.520Z,3.50
2018-12-21T03:24:32.024Z,3.50
2018-12-21T03:26:59.789Z,3.50
2018-12-21T03:29:27.283Z,3.50
2018-12-21T03:31:54.797Z,3.50
2018-12-21T03:34:22.287Z,3.50
2018-12-21T03:36:49.778Z,3.50
2018-12-21T03:39:17.307Z,3.50
2018-12-21T03:41:44.778Z,3.50
2018-12-21T03:44:12.255Z,3.50
2018-12-21T03:46:39.806Z,3.40
2018-12-21T03:49:07.272Z,3.40
2018-12-21T03:51:34.856Z,3.40
2018-12-21T03:54:02.342Z,3.40
2018-12-21T03:56:29.923Z,3.40
2018-12-21T03:58:57.404Z,3.40
2018-12-21T04:01:24.998Z,3.40
2018-12-21T04:03:52.548Z,3.40
2018-12-21T04:06:20.045Z,3.40
2018-12-21T04:08:47.542Z,3.40
2018-12-21T04:11:15.384Z,3.50
2018-12-21T04:13:42.882Z,3.50
2018-12-21T04:16:10.398Z,3.50
2018-12-21T04:18:37.881Z,3.50
2018-12-21T04:21:05.379Z,3.50
2018-12-21T04:23:32.971Z,3.40
2018-12-21T04:26:00.435Z,3.40
2018-12-21T04:28:27.958Z,3.40
2018-12-21T04:30:55.439Z,3.30
2018-12-21T04:33:22.974Z,3.30
2018-12-21T04:35:50.477Z,3.30
2018-12-21T04:38:17.979Z,3.30
2018-12-21T04:40:45.453Z,3.20
2018-12-21T04:43:12.977Z,3.20
2018-12-21T04:45:40.515Z,3.20
2018-12-21T04:48:08.054Z,3.20
2018-12-21T04:50:35.588Z,3.20
2018-12-21T04:53:03.060Z,3.10
2018-12-21T04:55:30.537Z,3.10
2018-12-21T04:57:58.292Z,3.10
2018-12-21T05:00:25.775Z,3.10
2018-12-21T05:02:53.272Z,3.00
2018-12-21T05:05:20.777Z,3.00
2018-12-21T05:07:48.328Z,3.00
2018-12-21T05:10:16.157Z,2.90
2018-12-21T05:12:43.729Z,2.90
2018-12-21T05:15:11.289Z,2.90
2018-12-21T05:17:38.793Z,2.80
2018-12-21T05:20:06.673Z,2.80
2018-12-21T05:22:34.158Z,2.80
2018-12-21T05:25:02.636Z,2.70
2018-12-21T05:27:30.098Z,2.70
2018-12-21T05:29:57.602Z,2.70
2018-12-21T05:32:25.158Z,2.60
2018-12-21T05:34:52.659Z,2.70
2018-12-21T05:37:20.174Z,2.60
2018-12-21T05:39:47.679Z,2.60
2018-12-21T05:42:15.180Z,2.60
2018-12-21T05:44:42.692Z,2.60
2018-12-21T05:47:10.179Z,2.60
2018-12-21T05:49:38.523Z,2.60
2018-12-21T05:52:06.120Z,2.60
2018-12-21T05:54:33.649Z,2.50
2018-12-21T05:57:01.222Z,2.50
2018-12-21T05:59:28.767Z,2.50
2018-12-21T06:01:56.320Z,2.50
2018-12-21T06:04:23.827Z,2.50
2018-12-21T06:06:51.396Z,2.50
2018-12-21T06:09:18.914Z,2.50
2018-12-21T06:11:46.537Z,2.50
2018-12-21T06:14:14.267Z,2.50
2018-12-21T06:16:41.891Z,2.50
2018-12-21T06:19:09.388Z,2.60
2018-12-21T06:21:37.068Z,2.50
2018-12-21T06:24:05.179Z,2.60
2018-12-21T06:26:32.734Z,2.50
2018-12-21T06:29:00.238Z,2.60
2018-12-21T06:31:27.980Z,2.60
2018-12-21T06:33:55.545Z,2.60
2018-12-21T06:36:23.119Z,2.70
2018-12-21T06:38:50.597Z,2.70
2018-12-21T06:41:18.072Z,2.70
2018-12-21T06:43:45.612Z,2.80
2018-12-21T06:46:14.255Z,2.80
2018-12-21T06:48:42.118Z,2.90
2018-12-21T06:51:09.617Z,2.90
2018-12-21T06:53:37.218Z,2.90
2018-12-21T06:56:04.705Z,2.90
2018-12-21T06:58:32.238Z,2.90
2018-12-21T07:01:00.758Z,2.90
2018-12-21T07:03:28.396Z,2.90
2018-12-21T07:05:55.907Z,2.90
2018-12-21T07:08:23.449Z,2.90
2018-12-21T07:10:51.081Z,2.90
2018-12-21T07:13:18.624Z,2.90
2018-12-21T07:15:46.181Z,2.90
2018-12-21T07:18:13.656Z,2.90
2018-12-21T07:20:41.158Z,2.90
2018-12-21T07:23:08.646Z,3.00
2018-12-21T07:25:36.129Z,3.00
2018-12-21T07:28:03.622Z,3.00
2018-12-21T07:30:31.205Z,3.00
2018-12-21T07:32:58.675Z,3.00
2018-12-21T07:35:27.043Z,3.00
2018-12-21T07:37:54.522Z,3.00
2018-12-21T07:40:22.036Z,3.10
2018-12-21T07:42:49.604Z,3.10
2018-12-21T07:45:17.212Z,3.10
2018-12-21T07:47:44.807Z,3.10
2018-12-21T07:50:12.329Z,3.10
2018-12-21T07:52:39.843Z,3.10
2018-12-21T07:55:07.517Z,3.20
2018-12-21T07:57:34.986Z,3.10
2018-12-21T08:00:02.633Z,3.20
2018-12-21T08:02:30.158Z,3.20
2018-12-21T08:04:57.638Z,3.20
2018-12-21T08:07:25.121Z,3.20
2018-12-21T08:09:52.621Z,3.30
2018-12-21T08:12:20.181Z,3.20
2018-12-21T08:14:47.802Z,3.30
2018-12-21T08:17:15.291Z,3.30
2018-12-21T08:19:42.807Z,3.30
2018-12-21T08:22:10.282Z,3.30
2018-12-21T08:24:37.826Z,3.30
2018-12-21T08:27:05.313Z,3.30
2018-12-21T08:29:32.823Z,3.20
2018-12-21T08:32:00.317Z,3.20
2018-12-21T08:34:27.795Z,3.30
2018-12-21T08:36:55.351Z,3.20
2018-12-21T08:39:22.941Z,3.30
2018-12-21T08:41:50.490Z,3.30
2018-12-21T08:44:18.040Z,3.30
2018-12-21T08:46:46.629Z,3.30
2018-12-21T08:49:14.435Z,3.30
2018-12-21T08:51:41.941Z,3.40
2018-12-21T08:54:09.403Z,3.40
2018-12-21T08:56:36.936Z,3.40
2018-12-21T08:59:04.567Z,3.50
2018-12-21T09:01:32.142Z,3.50
2018-12-21T09:03:59.730Z,3.50
2018-12-21T09:06:27.282Z,3.50
2018-12-21T09:08:54.761Z,3.50
2018-12-21T09:11:22.331Z,3.50
2018-12-21T09:13:49.853Z,3.60
2018-12-21T09:16:17.360Z,3.60
2018-12-21T09:18:44.904Z,3.60
2018-12-21T09:21:12.460Z,3.60
2018-12-21T09:23:39.998Z,3.60
2018-12-21T09:26:07.514Z,3.60
2018-12-21T09:28:34.998Z,3.60
2018-12-21T09:31:02.530Z,3.70
2018-12-21T09:33:30.023Z,3.60
2018-12-21T09:35:57.519Z,3.60
2018-12-21T09:38:25.024Z,3.70
2018-12-21T09:40:52.516Z,3.70
2018-12-21T09:43:20.121Z,3.70
2018-12-21T09:45:47.655Z,3.70
2018-12-21T09:48:15.204Z,3.70
2018-12-21T09:50:43.013Z,3.70
2018-12-21T09:53:10.749Z,3.70
2018-12-21T09:55:38.510Z,3.70
2018-12-21T09:58:06.199Z,3.70
2018-12-21T10:00:33.718Z,3.80
2018-12-21T10:03:01.216Z,3.80
2018-12-21T10:05:29.152Z,3.90
2018-12-21T10:07:57.224Z,3.90
2018-12-21T10:10:24.838Z,4.00
2018-12-21T10:12:53.486Z,4.00
2018-12-21T10:15:21.159Z,4.10
2018-12-21T10:17:48.653Z,4.20
2018-12-21T10:20:19.909Z,4.20
2018-12-21T10:22:46.428Z,4.20
2018-12-21T10:25:13.946Z,4.30
2018-12-21T10:27:41.466Z,4.30
2018-12-21T10:30:09.622Z,4.30
2018-12-21T10:32:37.800Z,4.30
2018-12-21T10:35:06.523Z,4.30
2018-12-21T10:37:34.065Z,4.30
2018-12-21T10:40:01.614Z,4.40
2018-12-21T10:42:29.291Z,4.40
2018-12-21T10:44:57.212Z,4.30
2018-12-21T10:47:24.750Z,4.30
2018-12-21T10:49:52.289Z,4.30
2018-12-21T10:52:19.797Z,4.30
2018-12-21T10:54:47.290Z,4.20
2018-12-21T10:57:14.777Z,4.20
2018-12-21T10:59:43.453Z,4.20
2018-12-21T11:02:11.288Z,4.10
2018-12-21T11:04:38.832Z,4.10
2018-12-21T11:07:07.329Z,4.10
2018-12-21T11:09:35.041Z,4.10
2018-12-21T11:12:02.919Z,4.00
2018-12-21T11:14:30.442Z,4.00
2018-12-21T11:16:58.205Z,4.00
2018-12-21T11:19:25.951Z,3.90
2018-12-21T11:21:53.441Z,3.90
2018-12-21T11:24:21.010Z,3.90
2018-12-21T11:26:48.608Z,3.90
2018-12-21T11:29:16.162Z,3.80
2018-12-21T11:31:43.696Z,3.80
2018-12-21T11:34:11.173Z,3.80
2018-12-21T11:36:38.728Z,3.80
2018-12-21T11:39:06.368Z,3.80
2018-12-21T11:41:34.397Z,3.80
2018-12-21T11:44:01.979Z,3.80
2018-12-21T11:46:29.484Z,3.80
2018-12-21T11:48:57.028Z,3.80
2018-12-21T11:51:24.571Z,3.80
2018-12-21T11:53:52.126Z,3.80
2018-12-21T11:56:19.580Z,3.80
2018-12-21T11:58:47.354Z,3.80
2018-12-21T12:01:14.943Z,3.90
2018-12-21T12:03:42.438Z,3.90
2018-12-21T12:06:10.006Z,3.90
2018-12-21T12:08:37.512Z,3.90
2018-12-21T12:11:05.043Z,3.90
2018-12-21T12:13:32.533Z,3.90
2018-12-21T12:16:00.460Z,3.90
2018-12-21T12:18:28.132Z,3.90
2018-12-21T12:20:55.949Z,3.90
2018-12-21T12:23:23.532Z,3.90
2018-12-21T12:25:51.031Z,3.90
2018-12-21T12:28:18.867Z,3.90
2018-12-21T12:30:46.659Z,3.90
2018-12-21T12:33:14.188Z,3.90
2018-12-21T12:35:41.712Z,3.90
2018-12-21T12:38:09.356Z,3.90
2018-12-21T12:40:37.438Z,3.90
2018-12-21T12:43:05.036Z,3.90
2018-12-21T12:45:32.715Z,3.90
2018-12-21T12:48:00.430Z,3.90
2018-12-21T12:50:28.517Z,3.90
2018-12-21T12:52:56.023Z,3.90
2018-12-21T12:55:23.786Z,4.00
2018-12-21T12:57:51.282Z,4.00
2018-12-21T13:00:19.140Z,4.00
2018-12-21T13:02:46.627Z,4.10
2018-12-21T13:05:14.160Z,4.10
2018-12-21T13:07:41.712Z,4.10
2018-12-21T13:10:10.200Z,4.10
2018-12-21T13:12:37.912Z,4.10
2018-12-21T13:15:07.486Z,4.20
2018-12-21T13:17:34.971Z,4.10
2018-12-21T13:20:03.535Z,4.20
2018-12-21T13:22:31.498Z,4.10
2018-12-21T13:24:59.310Z,4.10
2018-12-21T13:27:26.827Z,4.10
2018-12-21T13:29:54.392Z,4.20
2018-12-21T13:32:21.943Z,4.20
2018-12-21T13:34:49.460Z,4.20
2018-12-21T13:37:16.930Z,4.20
2018-12-21T13:39:44.408Z,4.20
2018-12-21T13:42:11.919Z,4.20
2018-12-21T13:44:39.411Z,4.20
2018-12-21T13:47:06.982Z,4.20
2018-12-21T13:49:34.601Z,4.20
2018-12-21T13:52:03.715Z,4.30
2018-12-21T13:54:31.215Z,4.30
2018-12-21T13:56:58.687Z,4.30
2018-12-21T13:59:26.181Z,4.30
2018-12-21T14:01:53.705Z,4.30
2018-12-21T14:04:21.188Z,4.40
2018-12-21T14:06:48.783Z,4.40
2018-12-21T14:09:16.298Z,4.40
2018-12-21T14:11:43.781Z,4.50
2018-12-21T14:14:12.558Z,4.50
2018-12-21T14:16:40.097Z,4.50
2018-12-21T14:19:07.591Z,4.60
2018-12-21T14:21:35.083Z,4.60
2018-12-21T14:24:02.564Z,4.70
2018-12-21T14:26:30.086Z,4.80
2018-12-21T14:28:57.594Z,4.80
2018-12-21T14:31:25.073Z,4.90
2018-12-21T14:33:53.088Z,4.90
2018-12-21T14:36:20.967Z,5.00
2018-12-21T14:38:48.542Z,5.00
2018-12-21T14:41:16.481Z,5.10
2018-12-21T14:43:43.988Z,5.10
2018-12-21T14:46:11.471Z,5.20
2018-12-21T14:48:39.010Z,5.20
2018-12-21T14:51:06.489Z,5.20
2018-12-21T14:53:33.993Z,5.30
2018-12-21T14:56:01.485Z,5.40
2018-12-21T14:58:28.983Z,5.40
2018-12-21T15:00:56.545Z,5.40
2018-12-21T15:03:24.025Z,5.40
2018-12-21T15:05:51.525Z,5.50
2018-12-21T15:08:18.987Z,5.60
2018-12-21T15:10:46.465Z,5.60
2018-12-21T15:13:13.935Z,5.60
2018-12-21T15:15:41.424Z,5.70
2018-12-21T15:18:08.898Z,5.70
2018-12-21T15:20:36.384Z,5.70
2018-12-21T15:23:03.860Z,5.80
2018-12-21T15:25:31.358Z,5.80
2018-12-21T15:27:58.850Z,5.90
2018-12-21T15:30:26.339Z,5.90
2018-12-21T15:32:53.827Z,6.00
2018-12-21T15:35:21.322Z,6.10
2018-12-21T15:37:48.782Z,6.10
2018-12-21T15:40:17.454Z,6.20
2018-12-21T15:42:44.943Z,6.20
2018-12-21T15:45:12.433Z,6.30
2018-12-21T15:47:39.922Z,6.30
2018-12-21T15:50:09.700Z,6.40
2018-12-21T15:52:37.158Z,6.40
2018-12-21T15:55:05.434Z,6.40
2018-12-21T15:57:32.913Z,6.40
2018-12-21T16:00:00.395Z,6.50
2018-12-21T16:02:27.892Z,6.50
2018-12-21T16:04:55.396Z,6.60
2018-12-21T16:07:22.881Z,6.70
2018-12-21T16:09:50.388Z,6.70
2018-12-21T16:12:17.888Z,6.80
2018-12-21T16:14:45.396Z,6.90
2018-12-21T16:17:12.895Z,6.90
2018-12-21T16:19:40.439Z,7.00
2018-12-21T16:22:07.924Z,7.00
2018-12-21T16:24:35.387Z,7.00
2018-12-21T16:27:02.880Z,7.00
2018-12-21T16:29:30.383Z,7.10
2018-12-21T16:31:57.860Z,7.10
2018-12-21T16:34:25.364Z,7.20
2018-12-21T16:36:52.889Z,7.20
2018-12-21T16:39:20.404Z,7.20
2018-12-21T16:41:47.963Z,7.20
2018-12-21T16:44:15.442Z,7.20
2018-12-21T16:46:43.160Z,7.20
2018-12-21T16:49:10.676Z,7.20
2018-12-21T16:51:38.168Z,7.30
2018-12-21T16:54:05.664Z,7.20
2018-12-21T16:56:34.085Z,7.30
2018-12-21T16:59:01.587Z,7.30
2018-12-21T17:01:29.084Z,7.30
2018-12-21T17:03:56.583Z,7.30
2018-12-21T17:06:24.063Z,7.30
2018-12-21T17:08:51.606Z,7.30
2018-12-21T17:11:19.353Z,7.40
2018-12-21T17:13:46.866Z,7.40
2018-12-21T17:16:14.399Z,7.40
2018-12-21T17:18:41.882Z,7.50
2018-12-21T17:21:10.051Z,7.60
2018-12-21T17:23:37.626Z,7.60
2018-12-21T17:26:05.173Z,7.60
2018-12-21T17:28:32.850Z,7.60
2018-12-21T17:31:00.416Z,7.60
2018-12-21T17:33:27.899Z,7.60
2018-12-21T17:35:55.389Z,7.60
2018-12-21T17:38:22.891Z,7.60
2018-12-21T17:40:50.374Z,7.70
2018-12-21T17:43:17.883Z,7.70
2018-12-21T17:45:45.424Z,7.70
2018-12-21T17:48:12.930Z,7.70
2018-12-21T17:50:40.428Z,7.70
2018-12-21T17:53:07.931Z,7.80
2018-12-21T17:55:35.419Z,7.90
2018-12-21T17:58:03.115Z,7.90
2018-12-21T18:00:30.615Z,7.80
2018-12-21T18:02:58.106Z,7.90
2018-12-21T18:05:25.607Z,7.90
2018-12-21T18:07:53.178Z,8.00
2018-12-21T18:10:20.658Z,8.00
2018-12-21T18:12:48.223Z,8.10
2018-12-21T18:15:15.711Z,8.10
2018-12-21T18:17:43.400Z,8.10
2018-12-21T18:20:10.903Z,8.10
2018-12-21T18:22:38.445Z,8.10
2018-12-21T18:25:10.486Z,8.10
2018-12-21T18:27:38.045Z,8.10
2018-12-21T18:30:11.206Z,8.20
2018-12-21T18:32:38.723Z,8.20
2018-12-21T18:35:07.750Z,8.20
2018-12-21T18:37:35.734Z,8.20
2018-12-21T18:40:07.232Z,8.20
2018-12-21T18:42:34.728Z,8.30
2018-12-21T18:45:02.310Z,8.30
2018-12-21T18:47:29.892Z,8.30
2018-12-21T18:49:57.373Z,8.30
2018-12-21T18:52:24.861Z,8.40
2018-12-21T18:54:52.430Z,8.40
2018-12-21T18:57:20.684Z,8.40
2018-12-21T18:59:48.402Z,8.40
2018-12-21T19:02:16.060Z,8.40
2018-12-21T19:04:43.653Z,8.30
2018-12-21T19:07:11.149Z,8.40
2018-12-21T19:09:38.872Z,8.40
2018-12-21T19:12:06.559Z,8.40
2018-12-21T19:14:34.743Z,8.40
2018-12-21T19:17:03.394Z,8.40
2018-12-21T19:19:31.308Z,8.40
2018-12-21T19:21:58.829Z,8.50
2018-12-21T19:24:26.525Z,8.50
2018-12-21T19:26:55.899Z,8.50
2018-12-21T19:29:23.682Z,8.50
2018-12-21T19:31:51.196Z,8.50
2018-12-21T19:34:18.734Z,8.60
2018-12-21T19:36:46.237Z,8.60
2018-12-21T19:39:13.736Z,8.60
2018-12-21T19:41:41.475Z,8.60
2018-12-21T19:44:09.225Z,8.60
2018-12-21T19:46:36.993Z,8.60
2018-12-21T19:49:04.759Z,8.60
2018-12-21T19:51:34.354Z,8.60
2018-12-21T19:54:01.861Z,8.50
2018-12-21T19:56:31.396Z,8.50
2018-12-21T19:58:58.903Z,8.50
2018-12-21T20:01:26.545Z,8.50
2018-12-21T20:03:54.233Z,8.50
2018-12-21T20:06:22.867Z,8.50
2018-12-21T20:08:50.439Z,8.50
2018-12-21T20:11:18.007Z,8.40
2018-12-21T20:13:45.821Z,8.40
2018-12-21T20:16:13.406Z,8.30
2018-12-21T20:18:41.940Z,8.30
2018-12-21T20:21:09.484Z,8.30
2018-12-21T20:23:37.141Z,8.30
2018-12-21T20:26:04.742Z,8.20
2018-12-21T20:28:32.367Z,8.20
2018-12-21T20:31:00.564Z,8.20
2018-12-21T20:33:28.403Z,8.20
2018-12-21T20:35:56.045Z,8.10
2018-12-21T20:38:24.844Z,8.20
2018-12-21T20:40:53.044Z,8.20
2018-12-21T20:43:21.455Z,8.20
2018-12-21T20:45:49.158Z,8.20
2018-12-21T20:48:16.765Z,8.20
2018-12-21T20:50:44.389Z,8.20
2018-12-21T20:53:12.709Z,8.20
2018-12-21T20:55:40.370Z,8.30
2018-12-21T20:58:08.605Z,8.30
2018-12-21T21:00:36.207Z,8.30
2018-12-21T21:03:03.805Z,8.20
2018-12-21T21:05:31.754Z,8.30
2018-12-21T21:07:59.527Z,8.30
2018-12-21T21:10:27.294Z,8.40
2018-12-21T21:12:54.822Z,8.40
2018-12-21T21:15:22.454Z,8.40
2018-12-21T21:17:49.979Z,8.40
2018-12-21T21:20:17.482Z,8.50
2018-12-21T21:22:45.044Z,8.60
2018-12-21T21:25:13.097Z,8.60
2018-12-21T21:27:40.777Z,8.70
2018-12-21T21:30:11.984Z,8.70
2018-12-21T21:32:39.956Z,8.60
2018-12-21T21:35:08.297Z,8.70
2018-12-21T21:37:36.375Z,8.70
2018-12-21T21:40:09.647Z,8.70
2018-12-21T21:42:37.155Z,8.70
2018-12-21T21:45:08.238Z,8.70
2018-12-21T21:47:35.891Z,8.70
2018-12-21T21:50:06.070Z,8.70
2018-12-21T21:52:33.621Z,8.70
2018-12-21T21:55:01.326Z,8.70
2018-12-21T21:57:28.955Z,8.60
2018-12-21T21:59:57.265Z,8.60
2018-12-21T22:02:25.397Z,8.50
2018-12-21T22:04:53.004Z,8.50
2018-12-21T22:07:20.681Z,8.40
2018-12-21T22:09:48.310Z,8.40
2018-12-21T22:12:16.271Z,8.40
2018-12-21T22:14:43.895Z,8.30
2018-12-21T22:17:11.632Z,8.30
2018-12-21T22:19:40.125Z,8.30
2018-12-21T22:22:07.650Z,8.30
2018-12-21T22:24:35.542Z,8.30
2018-12-21T22:27:05.016Z,8.20
2018-12-21T22:29:32.731Z,8.20
2018-12-21T22:32:00.319Z,8.20
2018-12-21T22:34:28.041Z,8.20
2018-12-21T22:36:55.706Z,8.20
2018-12-21T22:39:23.310Z,8.20
2018-12-21T22:41:51.333Z,8.20
2018-12-21T22:44:18.922Z,8.20
2018-12-21T22:46:47.482Z,8.20
2018-12-21T22:49:15.124Z,8.20
2018-12-21T22:51:42.896Z,8.20
2018-12-21T22:54:10.603Z,8.20
2018-12-21T22:56:38.349Z,8.20
2018-12-21T22:59:05.912Z,8.20
2018-12-21T23:01:33.665Z,8.30
2018-12-21T23:04:01.569Z,8.30
2018-12-21T23:06:29.380Z,8.20
2018-12-21T23:08:57.312Z,8.20
2018-12-21T23:11:25.251Z,8.20
2018-12-21T23:13:53.639Z,8.10
2018-12-21T23:16:21.609Z,8.10
2018-12-21T23:18:49.747Z,8.00
2018-12-21T23:21:17.369Z,8.00
2018-12-21T23:23:45.078Z,8.00
2018-12-21T23:26:12.812Z,8.00
2018-12-21T23:28:40.290Z,7.90
2018-12-21T23:31:07.856Z,7.90
2018-12-21T23:33:35.739Z,7.90
2018-12-21T23:36:03.417Z,7.90
2018-12-21T23:38:30.994Z,7.90
2018-12-21T23:40:58.518Z,7.90
2018-12-21T23:43:26.124Z,7.90
2018-12-21T23:45:53.821Z,7.90
2018-12-21T23:48:21.344Z,7.90
2018-12-21T23:50:49.003Z,7.90
2018-12-21T23:53:16.583Z,8.00
2018-12-21T23:55:44.148Z,8.00
2018-12-21T23:58:13.804Z,8.00
